KMTP/MTP METAR and TAF weather

Enter ICAO airport designator
Station Type Date Time Source
KMTP METAR 2019/02/16 02:54 UTC NOAA

KMTP 160254Z AUTO 21009KT 08/07 A2966 RMK AO1 SLP043 T00780072 58010


Station Type Date Time Source
KMTP Decoded METAR 2019/02/16 02:54 UTC NOAA

MONTAUK AIRPORT, NY, United States (KMTP) 41-04N 071-55W 2M
Feb 15, 2019 - 09:54 PM EST / 2019.02.16 0254 UTC
Wind: from the SSW (210 degrees) at 10 MPH (9 KT):0
Temperature: 46.0 F (7.8 C)
Dew Point: 45.0 F (7.2 C)
Relative Humidity: 95%
Pressure (altimeter): 29.66 in. Hg (1004 hPa)
Pressure tendency: 0.03 inches (1.0 hPa) lower than three hours ago
ob: KMTP 160254Z AUTO 21009KT 08/07 A2966 RMK AO1 SLP043 T00780072 58010
cycle: 3

Station Type Date Time Source
KMTP TAF UTC NOAA

Error!


Example: see airport list